Time;durP1;ratioP1;P1;durP2;ratioP2;P2;SDS_P1;SDS_P2;PMS_P1;PMS_P2;Temp;Humidity;BMP_temperature;BMP_pressure;BME280_temperature;BME280_humidity;BME280_pressure;Samples;Min_cycle;Max_cycle;Signal;HPM_P1;HPM_P2
2022/09/04 00:01:46;;;;;;;14.87;7.67;;;;;;;;;;1647170;85;21049;-64
2022/09/04 00:04:14;;;;;;;12.40;7.97;;;;;;;;;;1707792;82;21008;-64
2022/09/04 00:06:42;;;;;;;13.70;8.43;;;;;;;;;;1708354;82;21584;-64
2022/09/04 00:09:11;;;;;;;13.18;7.95;;;;;;;;;;1705346;83;21052;-64
2022/09/04 00:11:43;;;;;;;11.78;7.15;;;;;;;;;;1707967;82;21541;-64
2022/09/04 00:14:20;;;;;;;12.90;7.70;;;;;;;;;;1703708;82;21053;-64
2022/09/04 00:16:49;;;;;;;13.70;8.15;;;;;;;;;;1713293;82;21067;-64
2022/09/04 00:19:21;;;;;;;12.95;8.30;;;;;;;;;;1727138;82;21021;-63
2022/09/04 00:21:51;;;;;;;14.13;8.35;;;;;;;;;;1714205;82;21061;-63
2022/09/04 00:24:18;;;;;;;13.05;8.83;;;;;;;;;;1719051;82;21001;-63
2022/09/04 00:26:53;;;;;;;13.20;8.18;;;;;;;;;;1719042;82;21100;-63
2022/09/04 00:29:37;;;;;;;15.85;9.00;;;;;;;;;;1716210;82;21038;-64
2022/09/04 00:32:06;;;;;;;11.93;8.18;;;;;;;;;;1716979;82;21064;-61
2022/09/04 00:34:40;;;;;;;15.08;8.55;;;;;;;;;;1712233;82;21063;-64
2022/09/04 00:37:07;;;;;;;13.15;7.90;;;;;;;;;;1732107;82;21084;-64
2022/09/04 00:39:41;;;;;;;16.02;8.58;;;;;;;;;;1728931;82;21123;-64
2022/09/04 00:42:09;;;;;;;16.75;9.30;;;;;;;;;;1708077;82;21057;-63
2022/09/04 00:44:54;;;;;;;12.60;8.13;;;;;;;;;;1710963;82;21065;-63
2022/09/04 00:47:39;;;;;;;16.10;9.08;;;;;;;;;;1706459;82;21128;-62
2022/09/04 00:50:10;;;;;;;14.13;8.60;;;;;;;;;;1717449;82;21201;-64
2022/09/04 00:52:53;;;;;;;14.00;9.05;;;;;;;;;;1723090;82;21104;-64
2022/09/04 00:55:25;;;;;;;15.03;9.35;;;;;;;;;;1721267;81;21072;-64
2022/09/04 00:58:10;;;;;;;13.28;8.75;;;;;;;;;;1728669;81;21620;-64
2022/09/04 01:03:35;;;;;;;18.70;9.73;;;;;;;;;;1721223;80;75197;-63
2022/09/04 01:06:22;;;;;;;15.23;9.00;;;;;;;;;;1680357;84;21033;-62
2022/09/04 01:08:54;;;;;;;18.05;9.88;;;;;;;;;;1666149;84;21080;-62
2022/09/04 01:11:37;;;;;;;17.50;10.10;;;;;;;;;;1670858;84;21042;-63
2022/09/04 01:14:14;;;;;;;19.30;11.22;;;;;;;;;;1669800;84;21492;-63
2022/09/04 01:16:43;;;;;;;18.15;10.18;;;;;;;;;;1669246;84;21145;-63
2022/09/04 01:19:24;;;;;;;19.55;9.68;;;;;;;;;;1674494;84;21031;-63
2022/09/04 01:21:58;;;;;;;18.95;10.23;;;;;;;;;;1668551;84;21058;-63
2022/09/04 01:24:42;;;;;;;18.92;9.50;;;;;;;;;;1679157;84;21053;-63
2022/09/04 01:27:10;;;;;;;18.37;10.30;;;;;;;;;;1678252;84;21358;-62
2022/09/04 01:29:39;;;;;;;17.00;9.85;;;;;;;;;;1648323;86;21076;-62
2022/09/04 01:32:23;;;;;;;18.87;10.58;;;;;;;;;;1652262;86;21049;-63
2022/09/04 01:34:51;;;;;;;19.60;10.60;;;;;;;;;;1614052;87;21575;-62
2022/09/04 01:37:26;;;;;;;19.85;10.38;;;;;;;;;;1652282;86;21135;-63
2022/09/04 01:40:00;;;;;;;17.50;10.05;;;;;;;;;;1623567;88;21059;-63
2022/09/04 01:42:28;;;;;;;19.37;10.15;;;;;;;;;;1615940;87;21076;-62
2022/09/04 01:44:54;;;;;;;17.75;9.95;;;;;;;;;;1609585;87;21075;-63
2022/09/04 01:47:22;;;;;;;17.07;9.35;;;;;;;;;;1641143;86;21129;-62
2022/09/04 01:49:59;;;;;;;22.27;10.75;;;;;;;;;;1646585;86;21033;-62
2022/09/04 01:52:42;;;;;;;17.98;9.95;;;;;;;;;;1636680;86;21108;-63
2022/09/04 01:55:08;;;;;;;;;;;;;;;;;;1646234;86;21382;-63
2022/09/04 01:57:39;;;;;;;16.80;10.80;;;;;;;;;;1637645;86;20184;-63
2022/09/04 02:00:12;;;;;;;19.40;11.08;;;;;;;;;;1635562;86;21091;-63
2022/09/04 02:02:43;;;;;;;17.07;10.05;;;;;;;;;;1636322;86;21580;-63
2022/09/04 02:05:17;;;;;;;17.00;9.83;;;;;;;;;;1627713;87;21162;-63
2022/09/04 02:07:46;;;;;;;18.85;11.10;;;;;;;;;;1639025;87;22117;-63
2022/09/04 02:10:23;;;;;;;17.12;9.53;;;;;;;;;;1639586;87;21135;-63
2022/09/04 02:12:54;;;;;;;18.02;9.38;;;;;;;;;;1630460;86;21081;-62
2022/09/04 02:15:34;;;;;;;16.62;9.80;;;;;;;;;;1635526;87;21065;-63
2022/09/04 02:18:11;;;;;;;15.25;9.33;;;;;;;;;;1588046;87;21058;-63
2022/09/04 02:20:46;;;;;;;22.05;10.43;;;;;;;;;;1622230;87;21632;-63
2022/09/04 02:23:16;;;;;;;22.55;9.80;;;;;;;;;;1634559;86;21086;-63
2022/09/04 02:25:56;;;;;;;16.00;9.43;;;;;;;;;;1633345;87;21049;-63
2022/09/04 02:28:24;;;;;;;17.15;10.18;;;;;;;;;;1638193;86;21137;-63
2022/09/04 02:30:52;;;;;;;17.62;9.30;;;;;;;;;;1634082;87;21532;-63
2022/09/04 02:33:20;;;;;;;16.20;9.18;;;;;;;;;;1633850;86;21034;-63
2022/09/04 02:35:51;;;;;;;18.37;10.20;;;;;;;;;;1629990;87;21116;-63
2022/09/04 02:38:22;;;;;;;15.20;9.80;;;;;;;;;;1634017;87;21041;-64
2022/09/04 02:40:50;;;;;;;17.25;10.28;;;;;;;;;;1633293;87;21078;-63
2022/09/04 02:43:25;;;;;;;16.20;9.75;;;;;;;;;;1631675;87;21080;-63
2022/09/04 02:45:59;;;;;;;18.48;9.60;;;;;;;;;;1636710;86;21081;-63
2022/09/04 02:48:33;;;;;;;16.57;9.60;;;;;;;;;;1633570;86;21575;-62
2022/09/04 02:51:14;;;;;;;15.28;9.63;;;;;;;;;;1630148;87;21559;-62
2022/09/04 02:53:45;;;;;;;15.23;9.65;;;;;;;;;;1632809;87;21097;-63
2022/09/04 02:56:15;;;;;;;13.95;9.00;;;;;;;;;;1634510;88;21085;-63
2022/09/04 02:58:50;;;;;;;17.10;9.55;;;;;;;;;;1603607;88;21050;-64
2022/09/04 03:01:24;;;;;;;18.32;9.93;;;;;;;;;;1602976;88;21136;-64
2022/09/04 03:03:52;;;;;;;16.95;9.95;;;;;;;;;;1597964;88;21556;-63
2022/09/04 03:06:39;;;;;;;17.95;10.10;;;;;;;;;;1577421;89;21651;-63
2022/09/04 03:09:07;;;;;;;18.15;10.53;;;;;;;;;;1602357;87;21566;-63
2022/09/04 03:11:38;;;;;;;17.75;10.25;;;;;;;;;;1583580;89;21084;-63
2022/09/04 03:14:06;;;;;;;14.23;9.00;;;;;;;;;;1604966;88;21589;-63
2022/09/04 03:16:34;;;;;;;14.33;9.30;;;;;;;;;;1639392;86;21014;-63
2022/09/04 03:19:02;;;;;;;16.20;10.58;;;;;;;;;;1623584;88;21046;-64
2022/09/04 03:21:30;;;;;;;16.77;10.43;;;;;;;;;;1640041;86;21555;-63
2022/09/04 03:23:58;;;;;;;20.72;10.38;;;;;;;;;;1641765;86;21105;-63
2022/09/04 03:26:33;;;;;;;24.70;10.28;;;;;;;;;;1643413;86;21065;-63
2022/09/04 03:29:04;;;;;;;16.60;9.80;;;;;;;;;;1641847;86;21276;-63
2022/09/04 03:31:48;;;;;;;19.42;10.45;;;;;;;;;;1645879;86;21504;-63
2022/09/04 03:34:16;;;;;;;15.83;9.85;;;;;;;;;;1630508;86;21025;-62
2022/09/04 03:36:47;;;;;;;18.00;10.00;;;;;;;;;;1636937;86;21571;-62
2022/09/04 03:39:15;;;;;;;19.87;10.08;;;;;;;;;;1634338;86;21117;-63
2022/09/04 03:41:46;;;;;;;17.55;10.18;;;;;;;;;;1640238;86;21077;-63
2022/09/04 03:44:18;;;;;;;27.20;10.72;;;;;;;;;;1644331;86;21069;-63
2022/09/04 03:47:02;;;;;;;33.50;10.23;;;;;;;;;;1610604;86;21136;-63
2022/09/04 03:49:37;;;;;;;39.67;10.13;;;;;;;;;;1644084;86;21081;-63
2022/09/04 03:52:08;;;;;;;58.08;11.45;;;;;;;;;;1638050;86;21099;-63
2022/09/04 03:54:38;;;;;;;35.20;12.37;;;;;;;;;;1643968;86;21045;-63
2022/09/04 03:57:10;;;;;;;24.82;10.08;;;;;;;;;;1643104;86;21057;-63
2022/09/04 03:59:38;;;;;;;19.42;9.38;;;;;;;;;;1637372;86;21027;-62
2022/09/04 04:02:21;;;;;;;20.52;10.32;;;;;;;;;;1635291;86;22213;-62
2022/09/04 04:04:58;;;;;;;26.23;10.65;;;;;;;;;;1635730;86;21058;-62
2022/09/04 04:07:29;;;;;;;16.40;9.75;;;;;;;;;;1635588;86;21105;-63
2022/09/04 04:10:01;;;;;;;16.60;9.28;;;;;;;;;;1636394;86;21069;-63
2022/09/04 04:12:30;;;;;;;18.48;9.65;;;;;;;;;;1639002;86;21018;-63
2022/09/04 04:15:04;;;;;;;17.17;10.03;;;;;;;;;;1642137;86;21568;-63
2022/09/04 04:17:32;;;;;;;14.25;9.25;;;;;;;;;;1636594;86;21073;-63
2022/09/04 04:20:16;;;;;;;15.43;9.18;;;;;;;;;;1638205;86;21049;-64
2022/09/04 04:22:47;;;;;;;15.70;9.53;;;;;;;;;;1629892;86;21024;-63
2022/09/04 04:25:24;;;;;;;15.32;9.58;;;;;;;;;;1635687;86;21552;-64
2022/09/04 04:28:00;;;;;;;16.25;9.43;;;;;;;;;;1633519;86;21525;-63
2022/09/04 04:30:28;;;;;;;15.13;9.28;;;;;;;;;;1617716;86;21091;-63
2022/09/04 04:32:56;;;;;;;14.63;9.35;;;;;;;;;;1633797;86;21537;-63
2022/09/04 04:35:32;;;;;;;17.25;10.82;;;;;;;;;;1644661;86;22237;-63
2022/09/04 04:38:17;;;;;;;15.25;10.70;;;;;;;;;;1604851;87;21081;-63
2022/09/04 04:40:51;;;;;;;19.27;11.50;;;;;;;;;;1642469;86;21545;-63
2022/09/04 04:43:19;;;;;;;21.02;12.63;;;;;;;;;;1651903;86;21633;-63
2022/09/04 04:45:50;;;;;;;18.17;11.12;;;;;;;;;;1647197;86;21607;-64
2022/09/04 04:48:24;;;;;;;15.25;9.85;;;;;;;;;;1637584;86;21096;-64
2022/09/04 04:50:51;;;;;;;15.60;10.38;;;;;;;;;;1635220;86;21077;-64
2022/09/04 04:53:18;;;;;;;17.20;10.95;;;;;;;;;;1635900;86;21093;-64
2022/09/04 04:56:05;;;;;;;15.38;9.88;;;;;;;;;;1640165;86;22223;-63
2022/09/04 04:58:39;;;;;;;14.28;8.53;;;;;;;;;;1640543;86;21064;-64
2022/09/04 05:01:10;;;;;;;13.95;8.48;;;;;;;;;;1648586;85;21079;-64
2022/09/04 05:03:55;;;;;;;11.55;6.95;;;;;;;;;;1646937;86;21077;-64
2022/09/04 05:06:26;;;;;;;14.75;7.42;;;;;;;;;;1649776;86;21120;-65
2022/09/04 05:08:54;;;;;;;11.15;6.42;;;;;;;;;;1663744;86;21048;-64
2022/09/04 05:11:32;;;;;;;11.22;6.97;;;;;;;;;;1648291;87;21075;-63
2022/09/04 05:14:01;;;;;;;10.78;5.80;;;;;;;;;;1647659;86;21552;-64
2022/09/04 05:16:49;;;;;;;10.88;5.22;;;;;;;;;;1651764;86;21061;-64
2022/09/04 05:19:22;;;;;;;8.30;5.12;;;;;;;;;;1662968;86;21095;-64
2022/09/04 05:22:07;;;;;;;7.72;4.78;;;;;;;;;;1646442;86;21068;-64
2022/09/04 05:24:35;;;;;;;9.03;5.85;;;;;;;;;;1620568;87;21574;-64
2022/09/04 05:27:18;;;;;;;10.35;5.70;;;;;;;;;;1606513;88;21088;-65
2022/09/04 05:29:50;;;;;;;9.95;5.15;;;;;;;;;;1535997;92;21118;-65
2022/09/04 05:32:18;;;;;;;10.68;6.33;;;;;;;;;;1632036;86;21021;-64
2022/09/04 05:35:02;;;;;;;7.87;4.80;;;;;;;;;;1646406;86;21076;-64
2022/09/04 05:37:30;;;;;;;9.18;5.40;;;;;;;;;;1653952;86;21013;-64
2022/09/04 05:40:08;;;;;;;9.30;5.28;;;;;;;;;;1647419;85;21108;-64
2022/09/04 05:42:54;;;;;;;8.68;5.10;;;;;;;;;;1648878;86;21033;-63
2022/09/04 05:45:22;;;;;;;11.08;5.25;;;;;;;;;;1621206;87;21689;-64
2022/09/04 05:47:53;;;;;;;8.53;4.87;;;;;;;;;;1595535;89;21104;-65
2022/09/04 05:50:21;;;;;;;6.62;4.30;;;;;;;;;;1590957;88;21135;-64
2022/09/04 05:53:04;;;;;;;6.45;3.80;;;;;;;;;;1618079;87;21115;-63
2022/09/04 05:55:33;;;;;;;5.55;3.60;;;;;;;;;;1615033;88;21100;-63
2022/09/04 05:58:17;;;;;;;8.35;3.70;;;;;;;;;;1586719;89;21178;-64
2022/09/04 06:00:45;;;;;;;6.12;3.50;;;;;;;;;;1616483;86;21437;-63
2022/09/04 06:03:26;;;;;;;5.40;3.45;;;;;;;;;;1603140;88;21085;-64
2022/09/04 06:05:57;;;;;;;9.40;3.98;;;;;;;;;;1596258;87;21906;-65
2022/09/04 06:10:53;;;;;;;6.08;3.47;;;;;;;;;;1783714;79;22868;-64
2022/09/04 06:13:24;;;;;;;5.15;3.15;;;;;;;;;;1736483;81;21060;-64
2022/09/04 06:15:52;;;;;;;6.70;3.55;;;;;;;;;;1755620;81;21051;-64
2022/09/04 06:18:36;;;;;;;5.92;3.58;;;;;;;;;;1755216;81;21016;-63
2022/09/04 06:21:14;;;;;;;8.48;3.80;;;;;;;;;;1753915;81;21033;-63
2022/09/04 06:23:42;;;;;;;5.85;2.85;;;;;;;;;;1756920;81;21070;-64
2022/09/04 06:26:13;;;;;;;6.65;3.15;;;;;;;;;;1758944;81;21060;-63
2022/09/04 06:28:46;;;;;;;5.17;2.98;;;;;;;;;;1745787;81;21615;-64
2022/09/04 06:31:20;;;;;;;8.60;3.30;;;;;;;;;;1754194;81;21020;-64
2022/09/04 06:33:51;;;;;;;6.92;3.02;;;;;;;;;;1746379;81;21032;-62
2022/09/04 06:36:22;;;;;;;6.33;3.20;;;;;;;;;;1747456;81;21094;-62
2022/09/04 06:38:50;;;;;;;4.78;2.87;;;;;;;;;;1753696;81;21098;-63
2022/09/04 06:41:25;;;;;;;4.85;2.72;;;;;;;;;;1750704;81;21025;-63
2022/09/04 06:43:53;;;;;;;5.10;2.30;;;;;;;;;;1749780;81;21035;-63
2022/09/04 06:46:23;;;;;;;3.33;2.42;;;;;;;;;;1753487;81;21064;-63
2022/09/04 06:48:53;;;;;;;4.30;2.60;;;;;;;;;;1756184;81;21064;-63
2022/09/04 06:51:27;;;;;;;6.08;2.87;;;;;;;;;;1750398;81;21064;-63
2022/09/04 06:54:01;;;;;;;4.47;2.92;;;;;;;;;;1750118;81;21045;-64
2022/09/04 06:56:30;;;;;;;6.03;2.72;;;;;;;;;;1755284;81;21081;-63
2022/09/04 06:59:14;;;;;;;2.98;2.25;;;;;;;;;;1756998;81;21538;-64
2022/09/04 07:01:42;;;;;;;4.22;2.70;;;;;;;;;;1755114;81;21095;-65
2022/09/04 07:04:10;;;;;;;4.90;2.50;;;;;;;;;;1756601;81;21072;-64
2022/09/04 07:06:38;;;;;;;3.87;2.80;;;;;;;;;;1752928;81;21079;-64
2022/09/04 07:09:06;;;;;;;4.70;2.80;;;;;;;;;;1728009;81;21620;-63
2022/09/04 07:11:51;;;;;;;5.03;2.80;;;;;;;;;;1750195;82;21512;-63
2022/09/04 07:14:19;;;;;;;4.45;2.60;;;;;;;;;;1733645;82;21054;-64
2022/09/04 07:17:06;;;;;;;5.50;2.90;;;;;;;;;;1731404;82;21080;-64
2022/09/04 07:19:43;;;;;;;5.22;2.90;;;;;;;;;;1675597;85;21061;-64
2022/09/04 07:22:25;;;;;;;4.50;2.80;;;;;;;;;;1679129;84;21073;-64
2022/09/04 07:25:08;;;;;;;5.47;2.83;;;;;;;;;;1709064;82;21110;-64
2022/09/04 07:27:54;;;;;;;3.98;2.80;;;;;;;;;;1705170;83;21091;-65
2022/09/04 07:30:24;;;;;;;4.55;2.55;;;;;;;;;;1675008;85;21045;-64
2022/09/04 07:33:04;;;;;;;4.55;2.90;;;;;;;;;;1652952;85;21110;-63
2022/09/04 07:35:41;;;;;;;5.60;2.67;;;;;;;;;;1659333;85;21626;-64
2022/09/04 07:38:12;;;;;;;3.85;2.47;;;;;;;;;;1689798;83;21060;-64
2022/09/04 07:40:38;;;;;;;4.85;2.58;;;;;;;;;;1688989;85;21056;-65
2022/09/04 07:43:12;;;;;;;4.25;2.75;;;;;;;;;;1706021;82;21107;-64
2022/09/04 07:45:46;;;;;;;3.90;2.40;;;;;;;;;;1685094;83;21131;-65
2022/09/04 07:48:12;;;;;;;5.17;2.33;;;;;;;;;;1679702;83;21019;-63
2022/09/04 07:50:40;;;;;;;5.08;2.30;;;;;;;;;;1717324;83;21187;-63
2022/09/04 07:53:08;;;;;;;3.90;2.12;;;;;;;;;;1704279;83;21585;-63
2022/09/04 07:55:49;;;;;;;3.00;1.98;;;;;;;;;;1704087;83;21043;-63
2022/09/04 07:58:36;;;;;;;3.52;2.42;;;;;;;;;;1706524;83;21043;-64
2022/09/04 08:01:10;;;;;;;3.47;1.92;;;;;;;;;;1709607;83;21110;-64
2022/09/04 08:03:38;;;;;;;2.80;2.00;;;;;;;;;;1707387;83;21086;-63
2022/09/04 08:06:16;;;;;;;2.37;1.90;;;;;;;;;;1708234;83;21086;-62
2022/09/04 08:08:44;;;;;;;4.30;1.65;;;;;;;;;;1707150;83;21106;-63
2022/09/04 08:11:20;;;;;;;3.85;1.98;;;;;;;;;;1701679;83;21106;-64
2022/09/04 08:13:54;;;;;;;3.70;2.17;;;;;;;;;;1698146;83;21106;-65
2022/09/04 08:16:22;;;;;;;5.00;2.00;;;;;;;;;;1707488;83;21073;-71
2022/09/04 08:18:52;;;;;;;3.10;1.90;;;;;;;;;;1713903;83;22087;-73
2022/09/04 08:21:23;;;;;;;2.70;2.10;;;;;;;;;;1719709;83;21134;-72
2022/09/04 08:24:00;;;;;;;4.35;2.33;;;;;;;;;;1719548;83;21058;-73
2022/09/04 08:26:28;;;;;;;2.87;2.10;;;;;;;;;;1719380;83;21011;-73
2022/09/04 08:28:57;;;;;;;1.95;1.70;;;;;;;;;;1702782;83;21242;-73
2022/09/04 08:31:27;;;;;;;3.77;2.20;;;;;;;;;;1719871;83;22087;-73
2022/09/04 08:34:12;;;;;;;3.50;2.25;;;;;;;;;;1719794;83;21093;-73
2022/09/04 08:36:44;;;;;;;3.00;1.87;;;;;;;;;;1718968;83;21011;-73
2022/09/04 08:39:21;;;;;;;3.10;2.10;;;;;;;;;;1708288;83;21071;-73
2022/09/04 08:41:55;;;;;;;3.87;1.98;;;;;;;;;;1706017;83;21120;-72
2022/09/04 08:44:39;;;;;;;3.10;2.22;;;;;;;;;;1697130;83;21062;-72
2022/09/04 08:47:16;;;;;;;6.00;2.02;;;;;;;;;;1719545;83;21539;-73
2022/09/04 08:49:54;;;;;;;3.70;2.20;;;;;;;;;;1703722;83;21111;-72
2022/09/04 08:52:31;;;;;;;4.62;2.50;;;;;;;;;;1690323;85;21570;-73
2022/09/04 08:55:01;;;;;;;4.28;2.83;;;;;;;;;;1696459;83;21115;-73
2022/09/04 08:57:48;;;;;;;2.95;2.42;;;;;;;;;;1690642;85;21146;-73
2022/09/04 09:00:16;;;;;;;7.75;2.33;;;;;;;;;;1690482;85;21173;-74
2022/09/04 09:02:56;;;;;;;4.10;2.12;;;;;;;;;;1662539;86;21570;-73
2022/09/04 09:05:29;;;;;;;3.27;1.90;;;;;;;;;;1700059;83;21116;-73
2022/09/04 09:08:14;;;;;;;4.00;2.27;;;;;;;;;;1690674;85;21092;-73
2022/09/04 09:10:55;;;;;;;4.83;2.17;;;;;;;;;;1682606;85;21054;-72
2022/09/04 09:13:30;;;;;;;3.22;1.98;;;;;;;;;;1680103;84;21108;-74
2022/09/04 09:16:15;;;;;;;3.72;1.95;;;;;;;;;;1704563;84;21052;-74
2022/09/04 09:18:59;;;;;;;4.92;2.00;;;;;;;;;;1706314;84;21111;-74
2022/09/04 09:21:31;;;;;;;5.05;2.00;;;;;;;;;;1643467;87;21075;-73
2022/09/04 09:24:16;;;;;;;2.72;2.20;;;;;;;;;;1648944;86;21131;-73
2022/09/04 09:26:50;;;;;;;4.17;2.22;;;;;;;;;;1707062;84;21122;-74
2022/09/04 09:29:18;;;;;;;4.33;2.00;;;;;;;;;;1687861;84;21067;-73
2022/09/04 09:31:53;;;;;;;3.95;2.10;;;;;;;;;;1677410;85;21032;-73
2022/09/04 09:34:37;;;;;;;3.70;2.27;;;;;;;;;;1677417;85;21024;-74
2022/09/04 09:37:20;;;;;;;4.25;2.20;;;;;;;;;;1678001;84;21127;-73
2022/09/04 09:40:04;;;;;;;3.73;2.07;;;;;;;;;;1679108;85;21059;-72
2022/09/04 09:42:42;;;;;;;3.25;2.00;;;;;;;;;;1699964;84;21146;-74
2022/09/04 09:45:19;;;;;;;2.50;2.17;;;;;;;;;;1707564;84;21094;-73
2022/09/04 09:47:47;;;;;;;2.52;1.85;;;;;;;;;;1706852;84;22229;-73
2022/09/04 09:50:22;;;;;;;4.42;1.90;;;;;;;;;;1706568;84;21095;-73
2022/09/04 09:52:59;;;;;;;4.90;2.17;;;;;;;;;;1687511;84;21087;-73
2022/09/04 09:55:29;;;;;;;3.50;1.80;;;;;;;;;;1679079;85;21027;-73
2022/09/04 09:58:06;;;;;;;3.08;1.95;;;;;;;;;;1692263;84;21091;-74
2022/09/04 10:00:35;;;;;;;3.10;2.10;;;;;;;;;;1678512;85;21140;-74
2022/09/04 10:03:15;;;;;;;3.37;1.82;;;;;;;;;;1679215;85;21572;-73
2022/09/04 10:05:59;;;;;;;3.83;1.90;;;;;;;;;;1678689;85;21114;-74
2022/09/04 10:08:33;;;;;;;2.87;1.95;;;;;;;;;;1679427;85;21630;-74
2022/09/04 10:11:18;;;;;;;5.67;2.10;;;;;;;;;;1686519;85;21097;-73
2022/09/04 10:14:03;;;;;;;4.47;2.20;;;;;;;;;;1691041;85;21126;-74
2022/09/04 10:16:46;;;;;;;2.87;1.90;;;;;;;;;;1697848;83;21613;-73
2022/09/04 10:19:17;;;;;;;2.62;1.92;;;;;;;;;;1718479;83;21097;-73
2022/09/04 10:22:02;;;;;;;2.65;1.98;;;;;;;;;;1719766;83;21051;-73
2022/09/04 10:24:45;;;;;;;2.42;1.80;;;;;;;;;;1719673;83;21063;-75
2022/09/04 10:27:16;;;;;;;12.98;2.20;;;;;;;;;;1715879;83;21090;-74
2022/09/04 10:29:56;;;;;;;4.00;2.00;;;;;;;;;;1702234;83;21043;-74
2022/09/04 10:32:30;;;;;;;4.15;2.10;;;;;;;;;;1709154;83;21058;-74
2022/09/04 10:35:15;;;;;;;4.78;2.15;;;;;;;;;;1701883;83;21129;-74
2022/09/04 10:37:50;;;;;;;7.75;2.80;;;;;;;;;;1700340;83;21134;-72
2022/09/04 10:40:37;;;;;;;4.95;2.50;;;;;;;;;;1704388;83;21042;-73
2022/09/04 10:43:09;;;;;;;3.30;2.50;;;;;;;;;;1707462;83;21620;-72
2022/09/04 10:45:38;;;;;;;4.65;1.92;;;;;;;;;;1699295;83;21021;-71
2022/09/04 10:48:06;;;;;;;5.65;2.00;;;;;;;;;;1711212;83;21059;-72
2022/09/04 10:50:47;;;;;;;2.45;1.92;;;;;;;;;;1700976;83;21220;-72
2022/09/04 10:53:28;;;;;;;2.08;1.85;;;;;;;;;;1703903;82;21053;-72
2022/09/04 10:55:59;;;;;;;3.02;2.20;;;;;;;;;;1686294;84;21529;-71
2022/09/04 10:58:27;;;;;;;4.87;2.10;;;;;;;;;;1696403;83;21056;-72
2022/09/04 11:01:12;;;;;;;2.77;2.02;;;;;;;;;;1689196;83;21662;-72
2022/09/04 11:03:55;;;;;;;3.67;2.05;;;;;;;;;;1688168;83;21131;-73
2022/09/04 11:06:24;;;;;;;5.05;2.70;;;;;;;;;;1713891;83;21123;-73
2022/09/04 11:09:09;;;;;;;4.33;2.22;;;;;;;;;;1698501;83;21044;-74
2022/09/04 11:11:51;;;;;;;2.85;1.98;;;;;;;;;;1701374;83;21071;-73
2022/09/04 11:14:35;;;;;;;2.90;1.90;;;;;;;;;;1710181;82;21063;-73
2022/09/04 11:17:12;;;;;;;3.42;2.05;;;;;;;;;;1692382;83;21361;-73
2022/09/04 11:19:46;;;;;;;2.40;1.80;;;;;;;;;;1697258;83;21091;-73
2022/09/04 11:22:21;;;;;;;2.95;2.00;;;;;;;;;;1661405;85;21103;-73
2022/09/04 11:25:06;;;;;;;2.47;2.00;;;;;;;;;;1672004;85;21209;-73
2022/09/04 11:27:48;;;;;;;4.17;1.92;;;;;;;;;;1666794;83;21107;-73
2022/09/04 11:30:22;;;;;;;3.42;1.70;;;;;;;;;;1696952;83;21139;-72
2022/09/04 11:32:51;;;;;;;3.00;1.72;;;;;;;;;;1652455;85;21038;-75
2022/09/04 11:35:38;;;;;;;6.97;4.58;;;;;;;;;;1678844;83;21041;-72
2022/09/04 11:38:08;;;;;;;5.25;2.40;;;;;;;;;;1712056;83;21119;-71
2022/09/04 11:40:54;;;;;;;6.05;2.33;;;;;;;;;;1689765;83;21056;-71
2022/09/04 11:43:36;;;;;;;5.80;3.40;;;;;;;;;;1670935;85;21062;-73
2022/09/04 11:46:04;;;;;;;5.75;3.15;;;;;;;;;;1687120;85;21065;-73
2022/09/04 11:48:41;;;;;;;3.58;2.55;;;;;;;;;;1699484;83;21007;-73
2022/09/04 11:51:09;;;;;;;2.65;1.82;;;;;;;;;;1709296;83;21032;-73
2022/09/04 11:53:59;;;;;;;4.45;2.00;;;;;;;;;;1702423;83;21045;-74
2022/09/04 11:56:26;;;;;;;2.62;1.90;;;;;;;;;;1675962;85;21096;-73
2022/09/04 11:58:57;;;;;;;5.17;2.20;;;;;;;;;;1689873;83;21560;-74
2022/09/04 12:01:25;;;;;;;4.08;1.90;;;;;;;;;;1677663;83;21099;-74
2022/09/04 12:04:05;;;;;;;3.00;1.92;;;;;;;;;;1686626;85;21088;-75
2022/09/04 12:06:34;;;;;;;3.58;1.82;;;;;;;;;;1675234;86;21156;-75
2022/09/04 12:09:05;;;;;;;2.75;1.80;;;;;;;;;;1684172;83;21092;-75
2022/09/04 12:11:52;;;;;;;5.62;2.30;;;;;;;;;;1716794;83;21148;-74
2022/09/04 12:14:37;;;;;;;2.77;2.00;;;;;;;;;;1717866;83;21093;-74
2022/09/04 12:17:14;;;;;;;2.70;1.80;;;;;;;;;;1714241;83;21122;-74
2022/09/04 12:19:41;;;;;;;5.15;1.70;;;;;;;;;;1670540;83;21040;-73
2022/09/04 12:22:15;;;;;;;2.65;1.87;;;;;;;;;;1695552;84;21546;-73
2022/09/04 12:25:00;;;;;;;3.62;1.70;;;;;;;;;;1680326;85;21044;-73
2022/09/04 12:27:43;;;;;;;1.95;1.62;;;;;;;;;;1670830;85;21611;-74
2022/09/04 12:30:11;;;;;;;3.25;1.60;;;;;;;;;;1664467;85;21091;-73
2022/09/04 12:32:57;;;;;;;2.75;1.92;;;;;;;;;;1677540;84;21123;-74
2022/09/04 12:35:38;;;;;;;2.33;1.70;;;;;;;;;;1668121;83;21075;-74
2022/09/04 12:38:06;;;;;;;2.58;1.82;;;;;;;;;;1692987;84;21083;-74
2022/09/04 12:40:33;;;;;;;3.37;1.90;;;;;;;;;;1694298;84;21107;-74
2022/09/04 12:43:07;;;;;;;3.22;1.80;;;;;;;;;;1699532;84;21141;-73
2022/09/04 12:45:36;;;;;;;3.58;2.10;;;;;;;;;;1692202;84;20988;-73
2022/09/04 12:48:08;;;;;;;2.55;1.75;;;;;;;;;;1662941;85;21444;-74
2022/09/04 12:50:48;;;;;;;3.12;1.90;;;;;;;;;;1683583;84;21563;-73
2022/09/04 12:53:25;;;;;;;2.47;1.87;;;;;;;;;;1677853;85;21066;-73
2022/09/04 12:55:57;;;;;;;4.83;2.15;;;;;;;;;;1668038;85;21067;-74
2022/09/04 12:58:41;;;;;;;3.70;1.70;;;;;;;;;;1703625;83;21130;-73
2022/09/04 13:01:14;;;;;;;3.17;1.95;;;;;;;;;;1705485;83;22303;-73
2022/09/04 13:03:45;;;;;;;2.50;1.97;;;;;;;;;;1700685;83;21087;-73
2022/09/04 13:06:16;;;;;;;2.50;1.82;;;;;;;;;;1669250;85;21544;-73
2022/09/04 13:08:45;;;;;;;2.43;1.97;;;;;;;;;;1692325;84;22183;-73
2022/09/04 13:11:13;;;;;;;3.25;2.30;;;;;;;;;;1686834;83;21574;-73
2022/09/04 13:13:45;;;;;;;4.35;1.85;;;;;;;;;;1725569;82;21076;-72
2022/09/04 13:16:13;;;;;;;3.30;2.10;;;;;;;;;;1723281;82;21041;-74
2022/09/04 13:18:59;;;;;;;2.25;1.80;;;;;;;;;;1729314;82;21097;-68
2022/09/04 13:21:27;;;;;;;39.73;28.42;;;;;;;;;;1727477;82;21096;-73
2022/09/04 13:23:56;;;;;;;29.70;21.37;;;;;;;;;;1734199;81;21052;-73
2022/09/04 13:26:28;;;;;;;5.03;3.58;;;;;;;;;;1722732;81;21068;-75
2022/09/04 13:29:07;;;;;;;3.60;2.70;;;;;;;;;;1730500;81;21042;-76
2022/09/04 13:31:42;;;;;;;3.15;2.00;;;;;;;;;;1734812;81;21006;-75
2022/09/04 13:34:12;;;;;;;2.72;2.02;;;;;;;;;;1726692;82;21100;-75
2022/09/04 13:36:49;;;;;;;2.83;1.75;;;;;;;;;;1723546;82;21482;-75
2022/09/04 13:39:17;;;;;;;2.92;1.87;;;;;;;;;;1726657;82;21064;-74
2022/09/04 13:41:50;;;;;;;2.02;1.60;;;;;;;;;;1719786;81;21064;-75
2022/09/04 13:44:21;;;;;;;2.02;1.62;;;;;;;;;;1729704;82;21010;-75
2022/09/04 13:46:49;;;;;;;3.65;1.90;;;;;;;;;;1728529;81;21100;-75
2022/09/04 13:49:17;;;;;;;5.08;2.10;;;;;;;;;;1726572;82;21100;-74
2022/09/04 13:51:58;;;;;;;3.20;2.10;;;;;;;;;;1735072;82;21120;-74
2022/09/04 13:54:29;;;;;;;2.55;1.72;;;;;;;;;;1733193;82;21017;-74
2022/09/04 13:56:57;;;;;;;1.65;1.50;;;;;;;;;;1732525;81;21108;-74
2022/09/04 13:59:23;;;;;;;4.30;2.05;;;;;;;;;;1731672;81;21081;-74
2022/09/04 14:01:51;;;;;;;3.27;1.67;;;;;;;;;;1734187;82;21523;-74
2022/09/04 14:04:22;;;;;;;3.35;1.70;;;;;;;;;;1726607;82;21037;-74
2022/09/04 14:06:46;;;;;;;2.52;1.85;;;;;;;;;;1728677;82;21045;-75
2022/09/04 14:09:14;;;;;;;3.20;2.00;;;;;;;;;;1729232;82;21536;-75
2022/09/04 14:11:45;;;;;;;4.37;2.02;;;;;;;;;;1724596;81;21031;-74
2022/09/04 14:14:18;;;;;;;3.22;1.80;;;;;;;;;;1716448;83;21366;-73
2022/09/04 14:16:44;;;;;;;2.22;1.75;;;;;;;;;;1713822;82;21092;-73
2022/09/04 14:19:30;;;;;;;3.90;2.00;;;;;;;;;;1717973;82;21154;-74
2022/09/04 14:22:01;;;;;;;3.27;2.10;;;;;;;;;;1721401;82;21052;-74
2022/09/04 14:24:41;;;;;;;5.22;3.10;;;;;;;;;;1723202;82;21074;-75
2022/09/04 14:27:10;;;;;;;3.83;2.80;;;;;;;;;;1715380;84;21561;-74
2022/09/04 14:29:38;;;;;;;4.35;2.45;;;;;;;;;;1673069;84;21059;-74
2022/09/04 14:32:09;;;;;;;4.25;2.30;;;;;;;;;;1630124;86;21080;-74
2022/09/04 14:34:51;;;;;;;3.33;2.17;;;;;;;;;;1649602;87;21070;-74
2022/09/04 14:37:35;;;;;;;5.55;2.37;;;;;;;;;;1661790;85;21049;-74
2022/09/04 14:40:09;;;;;;;4.30;2.00;;;;;;;;;;1685299;84;21584;-74
2022/09/04 14:42:42;;;;;;;2.90;1.80;;;;;;;;;;1677771;85;21071;-74
2022/09/04 14:45:17;;;;;;;3.92;1.87;;;;;;;;;;1678696;84;21084;-74
2022/09/04 14:47:46;;;;;;;2.95;1.90;;;;;;;;;;1678523;85;21577;-73
2022/09/04 14:50:15;;;;;;;3.33;1.80;;;;;;;;;;1634433;86;21085;-73
2022/09/04 14:52:43;;;;;;;25.85;14.60;;;;;;;;;;1635885;86;21084;-72
2022/09/04 14:55:17;;;;;;;71.02;42.80;;;;;;;;;;1655278;86;21037;-72
2022/09/04 14:57:51;;;;;;;3.85;2.65;;;;;;;;;;1654233;86;21093;-76
2022/09/04 15:00:17;;;;;;;3.87;2.35;;;;;;;;;;1655425;85;21144;-76
2022/09/04 15:02:51;;;;;;;3.40;2.00;;;;;;;;;;1686356;84;21090;-74
2022/09/04 15:05:33;;;;;;;2.95;1.85;;;;;;;;;;1629670;86;21085;-74
2022/09/04 15:08:01;;;;;;;2.58;1.80;;;;;;;;;;1659394;85;21080;-75
2022/09/04 15:10:49;;;;;;;4.62;2.00;;;;;;;;;;1651062;85;21018;-75
2022/09/04 15:13:30;;;;;;;4.85;2.52;;;;;;;;;;1657967;85;21071;-75
2022/09/04 15:16:08;;;;;;;6.25;3.58;;;;;;;;;;1655034;86;21082;-77
2022/09/04 15:18:38;;;;;;;5.45;2.72;;;;;;;;;;1649148;86;22210;-74
2022/09/04 15:21:15;;;;;;;2.52;1.80;;;;;;;;;;1662873;86;21054;-77
2022/09/04 15:23:55;;;;;;;2.70;2.00;;;;;;;;;;1663146;84;21062;-76